sensor_id;sensor_type;location;lat;lon;timestamp;P1;durP1;ratioP1;P2;durP2;ratioP2
2031;SDS011;27625;50.422;7.944;2023-05-10T00:02:51;3.10;;;1.30;;
2031;SDS011;27625;50.422;7.944;2023-05-10T00:05:18;3.43;;;1.33;;
2031;SDS011;27625;50.422;7.944;2023-05-10T00:07:44;2.50;;;1.20;;
2031;SDS011;27625;50.422;7.944;2023-05-10T00:10:11;2.40;;;1.10;;
2031;SDS011;27625;50.422;7.944;2023-05-10T00:12:41;2.80;;;1.17;;
2031;SDS011;27625;50.422;7.944;2023-05-10T00:15:09;2.27;;;1.27;;
2031;SDS011;27625;50.422;7.944;2023-05-10T00:17:37;4.57;;;1.40;;
2031;SDS011;27625;50.422;7.944;2023-05-10T00:20:07;3.03;;;1.30;;
2031;SDS011;27625;50.422;7.944;2023-05-10T00:22:35;2.27;;;1.10;;
2031;SDS011;27625;50.422;7.944;2023-05-10T00:25:01;2.00;;;1.20;;
2031;SDS011;27625;50.422;7.944;2023-05-10T00:27:29;4.00;;;1.20;;
2031;SDS011;27625;50.422;7.944;2023-05-10T00:29:56;4.53;;;1.30;;
2031;SDS011;27625;50.422;7.944;2023-05-10T00:32:23;2.60;;;1.20;;
2031;SDS011;27625;50.422;7.944;2023-05-10T00:34:54;2.57;;;1.40;;
2031;SDS011;27625;50.422;7.944;2023-05-10T00:37:22;2.17;;;1.20;;
2031;SDS011;27625;50.422;7.944;2023-05-10T00:39:52;2.27;;;1.10;;
2031;SDS011;27625;50.422;7.944;2023-05-10T00:42:23;2.50;;;1.50;;
2031;SDS011;27625;50.422;7.944;2023-05-10T00:44:52;2.60;;;1.20;;
2031;SDS011;27625;50.422;7.944;2023-05-10T00:47:19;2.10;;;1.30;;
2031;SDS011;27625;50.422;7.944;2023-05-10T00:49:46;2.17;;;1.20;;
2031;SDS011;27625;50.422;7.944;2023-05-10T00:52:12;3.17;;;1.30;;
2031;SDS011;27625;50.422;7.944;2023-05-10T00:57:12;2.10;;;1.10;;
2031;SDS011;27625;50.422;7.944;2023-05-10T00:59:41;2.00;;;1.20;;
2031;SDS011;27625;50.422;7.944;2023-05-10T01:02:07;2.13;;;1.23;;
2031;SDS011;27625;50.422;7.944;2023-05-10T01:04:34;2.30;;;1.40;;
2031;SDS011;27625;50.422;7.944;2023-05-10T01:07:01;4.50;;;1.23;;
2031;SDS011;27625;50.422;7.944;2023-05-10T01:09:28;2.57;;;1.30;;
2031;SDS011;27625;50.422;7.944;2023-05-10T01:11:56;2.50;;;1.53;;
2031;SDS011;27625;50.422;7.944;2023-05-10T01:14:29;4.43;;;1.60;;
2031;SDS011;27625;50.422;7.944;2023-05-10T01:16:58;2.40;;;1.50;;
2031;SDS011;27625;50.422;7.944;2023-05-10T01:19:30;2.83;;;1.50;;
2031;SDS011;27625;50.422;7.944;2023-05-10T01:22:03;2.30;;;1.50;;
2031;SDS011;27625;50.422;7.944;2023-05-10T01:27:36;3.07;;;1.60;;
2031;SDS011;27625;50.422;7.944;2023-05-10T01:33:24;2.50;;;1.30;;
2031;SDS011;27625;50.422;7.944;2023-05-10T01:35:58;3.30;;;1.40;;
2031;SDS011;27625;50.422;7.944;2023-05-10T01:38:33;3.43;;;1.30;;
2031;SDS011;27625;50.422;7.944;2023-05-10T01:41:13;2.90;;;1.53;;
2031;SDS011;27625;50.422;7.944;2023-05-10T01:43:46;3.57;;;1.60;;
2031;SDS011;27625;50.422;7.944;2023-05-10T01:46:20;2.80;;;1.50;;
2031;SDS011;27625;50.422;7.944;2023-05-10T01:48:55;3.27;;;1.33;;
2031;SDS011;27625;50.422;7.944;2023-05-10T01:51:27;2.97;;;1.60;;
2031;SDS011;27625;50.422;7.944;2023-05-10T01:54:00;2.60;;;1.50;;
2031;SDS011;27625;50.422;7.944;2023-05-10T01:56:29;2.50;;;1.60;;
2031;SDS011;27625;50.422;7.944;2023-05-10T01:58:58;4.90;;;1.40;;
2031;SDS011;27625;50.422;7.944;2023-05-10T02:01:27;2.03;;;1.20;;
2031;SDS011;27625;50.422;7.944;2023-05-10T02:03:56;2.30;;;1.30;;
2031;SDS011;27625;50.422;7.944;2023-05-10T02:06:26;2.40;;;1.40;;
2031;SDS011;27625;50.422;7.944;2023-05-10T02:08:54;3.97;;;1.53;;
2031;SDS011;27625;50.422;7.944;2023-05-10T02:11:24;2.20;;;1.20;;
2031;SDS011;27625;50.422;7.944;2023-05-10T02:13:53;3.20;;;1.43;;
2031;SDS011;27625;50.422;7.944;2023-05-10T02:16:27;2.37;;;1.57;;
2031;SDS011;27625;50.422;7.944;2023-05-10T02:18:59;2.23;;;1.30;;
2031;SDS011;27625;50.422;7.944;2023-05-10T02:21:30;4.27;;;2.13;;
2031;SDS011;27625;50.422;7.944;2023-05-10T02:24:04;3.30;;;1.90;;
2031;SDS011;27625;50.422;7.944;2023-05-10T02:26:31;2.20;;;1.40;;
2031;SDS011;27625;50.422;7.944;2023-05-10T02:28:59;3.37;;;1.40;;
2031;SDS011;27625;50.422;7.944;2023-05-10T02:31:30;2.60;;;1.60;;
2031;SDS011;27625;50.422;7.944;2023-05-10T02:33:58;3.60;;;1.90;;
2031;SDS011;27625;50.422;7.944;2023-05-10T02:36:26;3.23;;;1.70;;
2031;SDS011;27625;50.422;7.944;2023-05-10T02:38:58;3.13;;;1.50;;
2031;SDS011;27625;50.422;7.944;2023-05-10T02:41:27;4.50;;;1.50;;
2031;SDS011;27625;50.422;7.944;2023-05-10T02:43:56;2.80;;;1.50;;
2031;SDS011;27625;50.422;7.944;2023-05-10T02:46:27;2.33;;;1.60;;
2031;SDS011;27625;50.422;7.944;2023-05-10T02:49:02;3.17;;;1.63;;
2031;SDS011;27625;50.422;7.944;2023-05-10T02:51:30;2.50;;;1.50;;
2031;SDS011;27625;50.422;7.944;2023-05-10T02:54:00;2.30;;;1.50;;
2031;SDS011;27625;50.422;7.944;2023-05-10T02:56:31;2.40;;;1.63;;
2031;SDS011;27625;50.422;7.944;2023-05-10T02:58:59;3.27;;;1.50;;
2031;SDS011;27625;50.422;7.944;2023-05-10T03:01:26;3.03;;;1.80;;
2031;SDS011;27625;50.422;7.944;2023-05-10T03:03:53;3.27;;;1.90;;
2031;SDS011;27625;50.422;7.944;2023-05-10T03:06:23;2.50;;;1.80;;
2031;SDS011;27625;50.422;7.944;2023-05-10T03:08:53;2.63;;;1.70;;
2031;SDS011;27625;50.422;7.944;2023-05-10T03:11:28;3.67;;;1.90;;
2031;SDS011;27625;50.422;7.944;2023-05-10T03:14:10;2.97;;;1.87;;
2031;SDS011;27625;50.422;7.944;2023-05-10T03:16:45;2.90;;;2.00;;
2031;SDS011;27625;50.422;7.944;2023-05-10T03:19:22;4.40;;;1.70;;
2031;SDS011;27625;50.422;7.944;2023-05-10T03:21:53;2.60;;;1.57;;
2031;SDS011;27625;50.422;7.944;2023-05-10T03:24:22;2.67;;;1.93;;
2031;SDS011;27625;50.422;7.944;2023-05-10T03:26:49;2.40;;;1.77;;
2031;SDS011;27625;50.422;7.944;2023-05-10T03:29:17;3.60;;;1.90;;
2031;SDS011;27625;50.422;7.944;2023-05-10T03:31:44;4.00;;;1.50;;
2031;SDS011;27625;50.422;7.944;2023-05-10T03:34:13;2.57;;;1.87;;
2031;SDS011;27625;50.422;7.944;2023-05-10T03:36:41;3.13;;;1.83;;
2031;SDS011;27625;50.422;7.944;2023-05-10T03:39:15;3.33;;;1.83;;
2031;SDS011;27625;50.422;7.944;2023-05-10T03:41:50;3.33;;;1.83;;
2031;SDS011;27625;50.422;7.944;2023-05-10T03:44:17;2.33;;;1.40;;
2031;SDS011;27625;50.422;7.944;2023-05-10T03:46:46;2.77;;;1.70;;
2031;SDS011;27625;50.422;7.944;2023-05-10T03:49:13;2.50;;;1.70;;
2031;SDS011;27625;50.422;7.944;2023-05-10T03:51:41;2.67;;;1.40;;
2031;SDS011;27625;50.422;7.944;2023-05-10T03:54:08;3.17;;;1.40;;
2031;SDS011;27625;50.422;7.944;2023-05-10T03:56:36;3.70;;;1.50;;
2031;SDS011;27625;50.422;7.944;2023-05-10T03:59:05;2.20;;;1.20;;
2031;SDS011;27625;50.422;7.944;2023-05-10T04:01:34;5.20;;;1.40;;
2031;SDS011;27625;50.422;7.944;2023-05-10T04:04:00;2.80;;;1.70;;
2031;SDS011;27625;50.422;7.944;2023-05-10T04:06:30;2.30;;;1.60;;
2031;SDS011;27625;50.422;7.944;2023-05-10T04:08:57;3.27;;;1.50;;
2031;SDS011;27625;50.422;7.944;2023-05-10T04:11:29;2.40;;;1.40;;
2031;SDS011;27625;50.422;7.944;2023-05-10T04:13:59;3.00;;;1.60;;
2031;SDS011;27625;50.422;7.944;2023-05-10T04:16:26;2.40;;;1.60;;
2031;SDS011;27625;50.422;7.944;2023-05-10T04:18:55;2.57;;;1.70;;
2031;SDS011;27625;50.422;7.944;2023-05-10T04:21:25;2.27;;;1.33;;
2031;SDS011;27625;50.422;7.944;2023-05-10T04:23:55;2.73;;;1.50;;
2031;SDS011;27625;50.422;7.944;2023-05-10T04:26:25;2.10;;;1.27;;
2031;SDS011;27625;50.422;7.944;2023-05-10T04:28:55;6.00;;;1.30;;
2031;SDS011;27625;50.422;7.944;2023-05-10T04:31:23;2.87;;;1.50;;
2031;SDS011;27625;50.422;7.944;2023-05-10T04:33:51;3.00;;;1.80;;
2031;SDS011;27625;50.422;7.944;2023-05-10T04:36:18;3.27;;;1.43;;
2031;SDS011;27625;50.422;7.944;2023-05-10T04:38:45;2.60;;;1.50;;
2031;SDS011;27625;50.422;7.944;2023-05-10T04:41:12;2.40;;;1.40;;
2031;SDS011;27625;50.422;7.944;2023-05-10T04:43:42;2.40;;;1.43;;
2031;SDS011;27625;50.422;7.944;2023-05-10T04:46:09;5.00;;;1.60;;
2031;SDS011;27625;50.422;7.944;2023-05-10T04:48:37;2.97;;;1.57;;
2031;SDS011;27625;50.422;7.944;2023-05-10T04:51:05;4.43;;;1.50;;
2031;SDS011;27625;50.422;7.944;2023-05-10T04:53:35;3.13;;;1.23;;
2031;SDS011;27625;50.422;7.944;2023-05-10T04:56:03;2.50;;;1.50;;
2031;SDS011;27625;50.422;7.944;2023-05-10T04:58:30;2.70;;;1.70;;
2031;SDS011;27625;50.422;7.944;2023-05-10T05:00:57;3.90;;;1.90;;
2031;SDS011;27625;50.422;7.944;2023-05-10T05:03:26;3.10;;;1.93;;
2031;SDS011;27625;50.422;7.944;2023-05-10T05:05:56;2.93;;;1.83;;
2031;SDS011;27625;50.422;7.944;2023-05-10T05:08:25;4.00;;;1.90;;
2031;SDS011;27625;50.422;7.944;2023-05-10T05:10:53;3.93;;;1.90;;
2031;SDS011;27625;50.422;7.944;2023-05-10T05:13:19;2.90;;;2.20;;
2031;SDS011;27625;50.422;7.944;2023-05-10T05:15:47;3.40;;;1.77;;
2031;SDS011;27625;50.422;7.944;2023-05-10T05:18:14;4.57;;;2.03;;
2031;SDS011;27625;50.422;7.944;2023-05-10T05:20:42;7.83;;;2.20;;
2031;SDS011;27625;50.422;7.944;2023-05-10T05:23:12;4.43;;;1.60;;
2031;SDS011;27625;50.422;7.944;2023-05-10T05:25:38;4.67;;;2.37;;
2031;SDS011;27625;50.422;7.944;2023-05-10T05:28:06;2.47;;;1.63;;
2031;SDS011;27625;50.422;7.944;2023-05-10T05:30:33;2.40;;;1.70;;
2031;SDS011;27625;50.422;7.944;2023-05-10T05:32:59;3.50;;;2.10;;
2031;SDS011;27625;50.422;7.944;2023-05-10T05:35:26;2.90;;;2.10;;
2031;SDS011;27625;50.422;7.944;2023-05-10T05:37:53;4.20;;;1.93;;
2031;SDS011;27625;50.422;7.944;2023-05-10T05:40:22;4.03;;;2.30;;
2031;SDS011;27625;50.422;7.944;2023-05-10T05:42:49;3.60;;;2.30;;
2031;SDS011;27625;50.422;7.944;2023-05-10T05:48:05;4.00;;;2.10;;
2031;SDS011;27625;50.422;7.944;2023-05-10T05:50:34;3.20;;;2.50;;
2031;SDS011;27625;50.422;7.944;2023-05-10T05:53:03;3.93;;;2.33;;
2031;SDS011;27625;50.422;7.944;2023-05-10T05:55:31;4.27;;;2.80;;
2031;SDS011;27625;50.422;7.944;2023-05-10T05:57:58;3.47;;;2.47;;
2031;SDS011;27625;50.422;7.944;2023-05-10T06:00:25;3.90;;;2.60;;
2031;SDS011;27625;50.422;7.944;2023-05-10T06:02:52;3.80;;;2.90;;
2031;SDS011;27625;50.422;7.944;2023-05-10T06:05:21;3.50;;;2.80;;
2031;SDS011;27625;50.422;7.944;2023-05-10T06:07:50;4.13;;;2.60;;
2031;SDS011;27625;50.422;7.944;2023-05-10T06:10:17;4.63;;;2.97;;
2031;SDS011;27625;50.422;7.944;2023-05-10T06:12:45;3.30;;;2.60;;
2031;SDS011;27625;50.422;7.944;2023-05-10T06:15:13;4.37;;;3.07;;
2031;SDS011;27625;50.422;7.944;2023-05-10T06:17:45;5.57;;;2.90;;
2031;SDS011;27625;50.422;7.944;2023-05-10T06:20:13;4.00;;;3.07;;
2031;SDS011;27625;50.422;7.944;2023-05-10T06:22:40;3.30;;;2.80;;
2031;SDS011;27625;50.422;7.944;2023-05-10T06:25:09;5.40;;;3.90;;
2031;SDS011;27625;50.422;7.944;2023-05-10T06:27:36;7.73;;;3.53;;
2031;SDS011;27625;50.422;7.944;2023-05-10T06:30:06;4.13;;;3.10;;
2031;SDS011;27625;50.422;7.944;2023-05-10T06:32:35;3.73;;;3.03;;
2031;SDS011;27625;50.422;7.944;2023-05-10T06:35:01;3.40;;;2.73;;
2031;SDS011;27625;50.422;7.944;2023-05-10T06:37:28;4.00;;;3.03;;
2031;SDS011;27625;50.422;7.944;2023-05-10T06:40:01;3.70;;;3.10;;
2031;SDS011;27625;50.422;7.944;2023-05-10T06:42:28;4.23;;;2.90;;
2031;SDS011;27625;50.422;7.944;2023-05-10T06:45:06;3.70;;;2.83;;
2031;SDS011;27625;50.422;7.944;2023-05-10T06:47:45;3.77;;;3.00;;
2031;SDS011;27625;50.422;7.944;2023-05-10T06:50:12;4.30;;;3.20;;
2031;SDS011;27625;50.422;7.944;2023-05-10T06:52:39;4.00;;;3.10;;
2031;SDS011;27625;50.422;7.944;2023-05-10T06:55:07;3.83;;;2.80;;
2031;SDS011;27625;50.422;7.944;2023-05-10T06:57:35;5.30;;;2.70;;
2031;SDS011;27625;50.422;7.944;2023-05-10T07:00:02;4.60;;;3.03;;
2031;SDS011;27625;50.422;7.944;2023-05-10T07:02:35;5.40;;;2.80;;
2031;SDS011;27625;50.422;7.944;2023-05-10T07:05:03;3.77;;;2.83;;
2031;SDS011;27625;50.422;7.944;2023-05-10T07:07:33;6.57;;;3.97;;
2031;SDS011;27625;50.422;7.944;2023-05-10T07:10:02;8.03;;;4.97;;
2031;SDS011;27625;50.422;7.944;2023-05-10T07:12:32;5.00;;;3.70;;
2031;SDS011;27625;50.422;7.944;2023-05-10T07:14:59;4.40;;;3.00;;
2031;SDS011;27625;50.422;7.944;2023-05-10T07:17:28;3.83;;;3.17;;
2031;SDS011;27625;50.422;7.944;2023-05-10T07:20:02;5.03;;;3.90;;
2031;SDS011;27625;50.422;7.944;2023-05-10T07:22:30;4.07;;;2.80;;
2031;SDS011;27625;50.422;7.944;2023-05-10T07:25:29;6.10;;;3.53;;
2031;SDS011;27625;50.422;7.944;2023-05-10T07:27:56;4.33;;;3.07;;
2031;SDS011;27625;50.422;7.944;2023-05-10T07:30:23;4.40;;;3.30;;
2031;SDS011;27625;50.422;7.944;2023-05-10T07:32:52;5.17;;;3.40;;
2031;SDS011;27625;50.422;7.944;2023-05-10T07:35:20;8.77;;;3.40;;
2031;SDS011;27625;50.422;7.944;2023-05-10T07:37:52;4.07;;;3.20;;
2031;SDS011;27625;50.422;7.944;2023-05-10T07:40:19;5.67;;;3.73;;
2031;SDS011;27625;50.422;7.944;2023-05-10T07:42:47;4.87;;;3.43;;
2031;SDS011;27625;50.422;7.944;2023-05-10T07:45:14;6.83;;;3.63;;
2031;SDS011;27625;50.422;7.944;2023-05-10T07:47:40;9.80;;;3.47;;
2031;SDS011;27625;50.422;7.944;2023-05-10T07:50:07;8.00;;;4.03;;
2031;SDS011;27625;50.422;7.944;2023-05-10T07:52:36;11.03;;;3.87;;
2031;SDS011;27625;50.422;7.944;2023-05-10T07:57:37;5.83;;;3.60;;
2031;SDS011;27625;50.422;7.944;2023-05-10T08:00:04;6.57;;;4.40;;
2031;SDS011;27625;50.422;7.944;2023-05-10T08:02:38;6.77;;;4.50;;
2031;SDS011;27625;50.422;7.944;2023-05-10T08:05:05;5.43;;;3.87;;
2031;SDS011;27625;50.422;7.944;2023-05-10T08:07:35;4.30;;;3.67;;
2031;SDS011;27625;50.422;7.944;2023-05-10T08:10:03;4.83;;;3.70;;
2031;SDS011;27625;50.422;7.944;2023-05-10T08:12:30;5.70;;;3.90;;
2031;SDS011;27625;50.422;7.944;2023-05-10T08:14:58;5.53;;;3.70;;
2031;SDS011;27625;50.422;7.944;2023-05-10T08:17:25;6.07;;;3.60;;
2031;SDS011;27625;50.422;7.944;2023-05-10T08:19:51;7.43;;;4.90;;
2031;SDS011;27625;50.422;7.944;2023-05-10T08:22:24;5.20;;;4.30;;
2031;SDS011;27625;50.422;7.944;2023-05-10T08:24:52;7.53;;;4.60;;
2031;SDS011;27625;50.422;7.944;2023-05-10T08:27:21;12.17;;;4.33;;
2031;SDS011;27625;50.422;7.944;2023-05-10T08:29:47;6.47;;;3.90;;
2031;SDS011;27625;50.422;7.944;2023-05-10T08:32:18;7.70;;;4.20;;
2031;SDS011;27625;50.422;7.944;2023-05-10T08:34:47;6.90;;;4.00;;
2031;SDS011;27625;50.422;7.944;2023-05-10T08:37:14;5.43;;;3.60;;
2031;SDS011;27625;50.422;7.944;2023-05-10T08:39:42;5.70;;;3.90;;
2031;SDS011;27625;50.422;7.944;2023-05-10T08:42:11;5.53;;;3.70;;
2031;SDS011;27625;50.422;7.944;2023-05-10T08:44:39;5.90;;;3.80;;
2031;SDS011;27625;50.422;7.944;2023-05-10T08:47:06;7.73;;;3.40;;
2031;SDS011;27625;50.422;7.944;2023-05-10T08:49:33;5.40;;;3.43;;
2031;SDS011;27625;50.422;7.944;2023-05-10T08:52:02;7.00;;;3.60;;
2031;SDS011;27625;50.422;7.944;2023-05-10T08:54:31;6.23;;;3.63;;
2031;SDS011;27625;50.422;7.944;2023-05-10T08:56:58;5.00;;;2.80;;
2031;SDS011;27625;50.422;7.944;2023-05-10T08:59:27;6.83;;;3.70;;
2031;SDS011;27625;50.422;7.944;2023-05-10T09:01:54;5.13;;;2.73;;
2031;SDS011;27625;50.422;7.944;2023-05-10T09:04:24;4.37;;;3.27;;
2031;SDS011;27625;50.422;7.944;2023-05-10T09:06:54;4.53;;;3.00;;
2031;SDS011;27625;50.422;7.944;2023-05-10T09:09:22;7.20;;;2.83;;
2031;SDS011;27625;50.422;7.944;2023-05-10T09:11:53;6.07;;;2.87;;
2031;SDS011;27625;50.422;7.944;2023-05-10T09:14:28;5.03;;;2.73;;
2031;SDS011;27625;50.422;7.944;2023-05-10T09:16:59;4.57;;;2.80;;
2031;SDS011;27625;50.422;7.944;2023-05-10T09:19:29;6.57;;;3.00;;
2031;SDS011;27625;50.422;7.944;2023-05-10T09:21:57;4.87;;;2.83;;
2031;SDS011;27625;50.422;7.944;2023-05-10T09:24:25;8.90;;;3.40;;
2031;SDS011;27625;50.422;7.944;2023-05-10T09:26:56;4.80;;;2.83;;
2031;SDS011;27625;50.422;7.944;2023-05-10T09:29:25;4.63;;;2.53;;
2031;SDS011;27625;50.422;7.944;2023-05-10T09:31:53;4.33;;;2.60;;
2031;SDS011;27625;50.422;7.944;2023-05-10T09:34:21;4.23;;;2.53;;
2031;SDS011;27625;50.422;7.944;2023-05-10T09:37:02;5.47;;;2.87;;
2031;SDS011;27625;50.422;7.944;2023-05-10T09:39:33;5.00;;;2.50;;
2031;SDS011;27625;50.422;7.944;2023-05-10T09:42:02;8.90;;;2.80;;
2031;SDS011;27625;50.422;7.944;2023-05-10T09:44:30;5.17;;;2.53;;
2031;SDS011;27625;50.422;7.944;2023-05-10T09:47:01;4.47;;;2.60;;
2031;SDS011;27625;50.422;7.944;2023-05-10T09:49:29;6.40;;;2.50;;
2031;SDS011;27625;50.422;7.944;2023-05-10T09:52:01;4.23;;;2.47;;
2031;SDS011;27625;50.422;7.944;2023-05-10T09:54:29;5.13;;;2.77;;
2031;SDS011;27625;50.422;7.944;2023-05-10T09:56:58;5.00;;;2.23;;
2031;SDS011;27625;50.422;7.944;2023-05-10T09:59:25;4.50;;;2.17;;
2031;SDS011;27625;50.422;7.944;2023-05-10T10:01:52;4.10;;;2.57;;
2031;SDS011;27625;50.422;7.944;2023-05-10T10:04:20;4.97;;;2.57;;
2031;SDS011;27625;50.422;7.944;2023-05-10T10:06:47;3.03;;;2.10;;
2031;SDS011;27625;50.422;7.944;2023-05-10T10:09:25;4.50;;;2.00;;
2031;SDS011;27625;50.422;7.944;2023-05-10T10:11:51;4.40;;;1.80;;
2031;SDS011;27625;50.422;7.944;2023-05-10T10:14:18;3.83;;;1.90;;
2031;SDS011;27625;50.422;7.944;2023-05-10T10:16:47;2.90;;;1.90;;
2031;SDS011;27625;50.422;7.944;2023-05-10T10:19:15;3.07;;;1.77;;
2031;SDS011;27625;50.422;7.944;2023-05-10T10:21:43;3.10;;;1.90;;
2031;SDS011;27625;50.422;7.944;2023-05-10T10:24:10;4.10;;;1.90;;
2031;SDS011;27625;50.422;7.944;2023-05-10T10:26:39;3.70;;;2.13;;
2031;SDS011;27625;50.422;7.944;2023-05-10T10:29:10;5.63;;;2.10;;
2031;SDS011;27625;50.422;7.944;2023-05-10T10:31:45;3.53;;;2.40;;
2031;SDS011;27625;50.422;7.944;2023-05-10T10:34:17;2.97;;;1.90;;
2031;SDS011;27625;50.422;7.944;2023-05-10T10:36:52;2.67;;;1.50;;
2031;SDS011;27625;50.422;7.944;2023-05-10T10:39:22;4.93;;;1.70;;
2031;SDS011;27625;50.422;7.944;2023-05-10T10:41:50;2.40;;;1.30;;
2031;SDS011;27625;50.422;7.944;2023-05-10T10:44:24;2.83;;;1.67;;
2031;SDS011;27625;50.422;7.944;2023-05-10T10:46:59;2.57;;;1.60;;
2031;SDS011;27625;50.422;7.944;2023-05-10T10:49:27;2.23;;;1.30;;
2031;SDS011;27625;50.422;7.944;2023-05-10T10:52:14;2.40;;;1.37;;
2031;SDS011;27625;50.422;7.944;2023-05-10T10:54:47;3.10;;;1.40;;
2031;SDS011;27625;50.422;7.944;2023-05-10T10:57:18;4.17;;;1.50;;
2031;SDS011;27625;50.422;7.944;2023-05-10T10:59:46;5.13;;;1.60;;
2031;SDS011;27625;50.422;7.944;2023-05-10T11:08:07;2.33;;;1.20;;
2031;SDS011;27625;50.422;7.944;2023-05-10T11:10:35;2.80;;;1.30;;
2031;SDS011;27625;50.422;7.944;2023-05-10T11:13:03;2.30;;;1.27;;
2031;SDS011;27625;50.422;7.944;2023-05-10T11:15:32;3.10;;;1.70;;
2031;SDS011;27625;50.422;7.944;2023-05-10T11:18:15;6.07;;;1.17;;
2031;SDS011;27625;50.422;7.944;2023-05-10T11:20:43;6.90;;;1.27;;
2031;SDS011;27625;50.422;7.944;2023-05-10T11:23:14;4.50;;;1.60;;
2031;SDS011;27625;50.422;7.944;2023-05-10T11:25:44;2.70;;;1.13;;
2031;SDS011;27625;50.422;7.944;2023-05-10T11:28:11;6.03;;;1.73;;
2031;SDS011;27625;50.422;7.944;2023-05-10T11:30:38;3.50;;;1.33;;
2031;SDS011;27625;50.422;7.944;2023-05-10T11:33:05;3.80;;;1.57;;
2031;SDS011;27625;50.422;7.944;2023-05-10T11:35:36;3.90;;;1.40;;
2031;SDS011;27625;50.422;7.944;2023-05-10T11:38:05;4.67;;;1.50;;
2031;SDS011;27625;50.422;7.944;2023-05-10T11:40:33;4.90;;;1.50;;
2031;SDS011;27625;50.422;7.944;2023-05-10T11:43:04;4.73;;;1.30;;
2031;SDS011;27625;50.422;7.944;2023-05-10T11:45:31;2.57;;;1.20;;
2031;SDS011;27625;50.422;7.944;2023-05-10T11:47:59;2.60;;;1.30;;
2031;SDS011;27625;50.422;7.944;2023-05-10T11:50:26;9.33;;;2.40;;
2031;SDS011;27625;50.422;7.944;2023-05-10T11:52:54;3.20;;;1.33;;
2031;SDS011;27625;50.422;7.944;2023-05-10T11:55:22;2.57;;;1.27;;
2031;SDS011;27625;50.422;7.944;2023-05-10T11:57:52;3.23;;;1.40;;
2031;SDS011;27625;50.422;7.944;2023-05-10T12:00:19;4.33;;;1.60;;
2031;SDS011;27625;50.422;7.944;2023-05-10T12:02:46;3.40;;;1.50;;
2031;SDS011;27625;50.422;7.944;2023-05-10T12:05:13;4.77;;;1.47;;
2031;SDS011;27625;50.422;7.944;2023-05-10T12:07:40;3.07;;;1.40;;
2031;SDS011;27625;50.422;7.944;2023-05-10T12:10:07;4.57;;;1.67;;
2031;SDS011;27625;50.422;7.944;2023-05-10T12:12:39;3.23;;;1.30;;
2031;SDS011;27625;50.422;7.944;2023-05-10T12:15:12;4.93;;;1.47;;
2031;SDS011;27625;50.422;7.944;2023-05-10T12:17:39;4.00;;;1.50;;
2031;SDS011;27625;50.422;7.944;2023-05-10T12:20:13;4.20;;;2.60;;
2031;SDS011;27625;50.422;7.944;2023-05-10T12:22:44;5.47;;;2.03;;
2031;SDS011;27625;50.422;7.944;2023-05-10T12:25:11;2.93;;;1.53;;
2031;SDS011;27625;50.422;7.944;2023-05-10T12:27:48;3.67;;;1.27;;
2031;SDS011;27625;50.422;7.944;2023-05-10T12:30:20;3.00;;;1.20;;
2031;SDS011;27625;50.422;7.944;2023-05-10T12:32:48;2.90;;;1.30;;
2031;SDS011;27625;50.422;7.944;2023-05-10T12:35:14;3.63;;;2.00;;
2031;SDS011;27625;50.422;7.944;2023-05-10T12:37:43;2.73;;;1.30;;
2031;SDS011;27625;50.422;7.944;2023-05-10T12:40:10;4.10;;;1.20;;
2031;SDS011;27625;50.422;7.944;2023-05-10T12:42:37;2.40;;;1.10;;
2031;SDS011;27625;50.422;7.944;2023-05-10T12:45:05;2.60;;;1.10;;
2031;SDS011;27625;50.422;7.944;2023-05-10T12:47:37;3.30;;;1.10;;
2031;SDS011;27625;50.422;7.944;2023-05-10T12:50:05;2.57;;;1.20;;
2031;SDS011;27625;50.422;7.944;2023-05-10T12:52:32;2.17;;;1.10;;
2031;SDS011;27625;50.422;7.944;2023-05-10T12:54:58;2.90;;;1.20;;
2031;SDS011;27625;50.422;7.944;2023-05-10T12:57:26;3.00;;;1.10;;
2031;SDS011;27625;50.422;7.944;2023-05-10T12:59:54;3.20;;;1.10;;
2031;SDS011;27625;50.422;7.944;2023-05-10T13:02:24;2.40;;;1.00;;
2031;SDS011;27625;50.422;7.944;2023-05-10T13:04:53;3.47;;;1.13;;
2031;SDS011;27625;50.422;7.944;2023-05-10T13:07:21;3.00;;;1.70;;
2031;SDS011;27625;50.422;7.944;2023-05-10T13:09:51;4.50;;;1.70;;
2031;SDS011;27625;50.422;7.944;2023-05-10T13:12:18;2.63;;;1.60;;
2031;SDS011;27625;50.422;7.944;2023-05-10T13:14:45;2.23;;;1.10;;
2031;SDS011;27625;50.422;7.944;2023-05-10T13:17:12;3.30;;;1.20;;
2031;SDS011;27625;50.422;7.944;2023-05-10T13:19:40;3.97;;;1.50;;
2031;SDS011;27625;50.422;7.944;2023-05-10T13:22:08;3.07;;;1.33;;
2031;SDS011;27625;50.422;7.944;2023-05-10T13:24:35;2.50;;;1.30;;
2031;SDS011;27625;50.422;7.944;2023-05-10T13:27:02;3.37;;;1.17;;
2031;SDS011;27625;50.422;7.944;2023-05-10T13:29:29;6.07;;;1.50;;
2031;SDS011;27625;50.422;7.944;2023-05-10T13:31:58;3.40;;;1.33;;
2031;SDS011;27625;50.422;7.944;2023-05-10T13:34:25;3.07;;;1.30;;
2031;SDS011;27625;50.422;7.944;2023-05-10T13:36:53;4.43;;;1.30;;
2031;SDS011;27625;50.422;7.944;2023-05-10T13:39:22;2.23;;;1.07;;
2031;SDS011;27625;50.422;7.944;2023-05-10T13:41:50;3.33;;;1.23;;
2031;SDS011;27625;50.422;7.944;2023-05-10T13:44:16;14.20;;;2.30;;
2031;SDS011;27625;50.422;7.944;2023-05-10T13:46:43;2.80;;;1.43;;
2031;SDS011;27625;50.422;7.944;2023-05-10T13:49:10;3.80;;;1.47;;
2031;SDS011;27625;50.422;7.944;2023-05-10T13:51:39;2.97;;;1.40;;
2031;SDS011;27625;50.422;7.944;2023-05-10T13:54:06;4.33;;;1.23;;
2031;SDS011;27625;50.422;7.944;2023-05-10T13:56:38;3.10;;;1.53;;
2031;SDS011;27625;50.422;7.944;2023-05-10T13:59:06;2.87;;;1.60;;
2031;SDS011;27625;50.422;7.944;2023-05-10T14:01:33;3.60;;;1.37;;
2031;SDS011;27625;50.422;7.944;2023-05-10T14:04:02;4.50;;;1.50;;
2031;SDS011;27625;50.422;7.944;2023-05-10T14:06:29;5.50;;;1.97;;
2031;SDS011;27625;50.422;7.944;2023-05-10T14:08:56;8.03;;;1.80;;
2031;SDS011;27625;50.422;7.944;2023-05-10T14:11:23;6.97;;;2.00;;
2031;SDS011;27625;50.422;7.944;2023-05-10T14:13:51;4.17;;;2.20;;
2031;SDS011;27625;50.422;7.944;2023-05-10T14:16:18;5.63;;;2.30;;
2031;SDS011;27625;50.422;7.944;2023-05-10T14:18:45;2.50;;;1.37;;
2031;SDS011;27625;50.422;7.944;2023-05-10T14:21:12;2.60;;;1.50;;
2031;SDS011;27625;50.422;7.944;2023-05-10T14:23:41;2.70;;;1.40;;
2031;SDS011;27625;50.422;7.944;2023-05-10T14:26:08;3.50;;;1.60;;
2031;SDS011;27625;50.422;7.944;2023-05-10T14:28:34;4.97;;;1.70;;
2031;SDS011;27625;50.422;7.944;2023-05-10T14:31:02;4.40;;;1.43;;
2031;SDS011;27625;50.422;7.944;2023-05-10T14:33:30;3.23;;;1.80;;
2031;SDS011;27625;50.422;7.944;2023-05-10T14:35:57;3.43;;;1.80;;
2031;SDS011;27625;50.422;7.944;2023-05-10T14:38:25;3.93;;;1.50;;
2031;SDS011;27625;50.422;7.944;2023-05-10T14:40:52;5.20;;;2.10;;
2031;SDS011;27625;50.422;7.944;2023-05-10T14:43:20;3.90;;;1.53;;
2031;SDS011;27625;50.422;7.944;2023-05-10T14:45:47;3.20;;;1.90;;
2031;SDS011;27625;50.422;7.944;2023-05-10T14:48:15;4.13;;;1.90;;
2031;SDS011;27625;50.422;7.944;2023-05-10T14:50:44;8.60;;;3.30;;
2031;SDS011;27625;50.422;7.944;2023-05-10T14:53:11;7.10;;;2.17;;
2031;SDS011;27625;50.422;7.944;2023-05-10T14:55:39;4.60;;;2.20;;
2031;SDS011;27625;50.422;7.944;2023-05-10T14:58:06;5.60;;;2.20;;
2031;SDS011;27625;50.422;7.944;2023-05-10T15:00:32;9.73;;;2.80;;
2031;SDS011;27625;50.422;7.944;2023-05-10T15:02:59;12.50;;;4.30;;
2031;SDS011;27625;50.422;7.944;2023-05-10T15:05:28;10.33;;;3.20;;
2031;SDS011;27625;50.422;7.944;2023-05-10T15:07:55;4.40;;;2.20;;
2031;SDS011;27625;50.422;7.944;2023-05-10T15:10:22;3.07;;;1.80;;
2031;SDS011;27625;50.422;7.944;2023-05-10T15:12:50;20.13;;;4.90;;
2031;SDS011;27625;50.422;7.944;2023-05-10T15:15:19;6.50;;;2.67;;
2031;SDS011;27625;50.422;7.944;2023-05-10T15:17:47;5.80;;;1.90;;
2031;SDS011;27625;50.422;7.944;2023-05-10T15:20:14;4.20;;;1.77;;
2031;SDS011;27625;50.422;7.944;2023-05-10T15:22:43;4.23;;;1.77;;
2031;SDS011;27625;50.422;7.944;2023-05-10T15:25:09;8.10;;;2.00;;
2031;SDS011;27625;50.422;7.944;2023-05-10T15:27:36;4.93;;;2.30;;
2031;SDS011;27625;50.422;7.944;2023-05-10T15:30:09;4.40;;;1.63;;
2031;SDS011;27625;50.422;7.944;2023-05-10T15:32:39;3.30;;;1.77;;